sensor_id;sensor_type;location;lat;lon;timestamp;temperature;humidity
23669;DHT22;12011;47.422;15.018;2024-01-11T00:02:17;-6.30;99.90
23669;DHT22;12011;47.422;15.018;2024-01-11T00:04:48;-7.60;99.90
23669;DHT22;12011;47.422;15.018;2024-01-11T00:07:18;-7.60;99.90
23669;DHT22;12011;47.422;15.018;2024-01-11T00:09:50;-7.50;99.90
23669;DHT22;12011;47.422;15.018;2024-01-11T00:12:28;-7.50;99.90
23669;DHT22;12011;47.422;15.018;2024-01-11T00:14:57;-7.60;99.90
23669;DHT22;12011;47.422;15.018;2024-01-11T00:17:30;-6.90;99.90
23669;DHT22;12011;47.422;15.018;2024-01-11T00:20:00;-7.60;99.90
23669;DHT22;12011;47.422;15.018;2024-01-11T00:22:29;-7.70;99.90
23669;DHT22;12011;47.422;15.018;2024-01-11T00:25:05;-7.70;99.90
23669;DHT22;12011;47.422;15.018;2024-01-11T00:27:35;-7.70;99.90
23669;DHT22;12011;47.422;15.018;2024-01-11T00:30:06;-7.80;99.90
23669;DHT22;12011;47.422;15.018;2024-01-11T00:32:52;-7.80;99.90
23669;DHT22;12011;47.422;15.018;2024-01-11T00:35:24;-7.80;99.90
23669;DHT22;12011;47.422;15.018;2024-01-11T00:37:54;-7.80;99.90
23669;DHT22;12011;47.422;15.018;2024-01-11T00:40:28;-7.80;99.90
23669;DHT22;12011;47.422;15.018;2024-01-11T00:42:59;-7.90;99.90
23669;DHT22;12011;47.422;15.018;2024-01-11T00:45:35;-7.20;99.90
23669;DHT22;12011;47.422;15.018;2024-01-11T00:48:07;-7.90;99.90
23669;DHT22;12011;47.422;15.018;2024-01-11T00:50:45;-7.90;99.90
23669;DHT22;12011;47.422;15.018;2024-01-11T00:53:16;-7.90;99.90
23669;DHT22;12011;47.422;15.018;2024-01-11T00:55:54;-7.90;99.90
23669;DHT22;12011;47.422;15.018;2024-01-11T00:58:25;-7.90;99.90
23669;DHT22;12011;47.422;15.018;2024-01-11T01:00:57;-7.90;99.90
23669;DHT22;12011;47.422;15.018;2024-01-11T01:03:28;-7.80;99.90
23669;DHT22;12011;47.422;15.018;2024-01-11T01:05:58;-7.70;99.90
23669;DHT22;12011;47.422;15.018;2024-01-11T01:08:28;-7.70;99.90
23669;DHT22;12011;47.422;15.018;2024-01-11T01:11:04;-7.70;99.90
23669;DHT22;12011;47.422;15.018;2024-01-11T01:13:40;-7.70;99.90
23669;DHT22;12011;47.422;15.018;2024-01-11T01:16:10;-7.70;99.90
23669;DHT22;12011;47.422;15.018;2024-01-11T01:18:42;-7.70;99.90
23669;DHT22;12011;47.422;15.018;2024-01-11T01:21:18;-7.70;99.90
23669;DHT22;12011;47.422;15.018;2024-01-11T01:23:47;-7.70;99.90
23669;DHT22;12011;47.422;15.018;2024-01-11T01:26:24;-7.80;99.90
23669;DHT22;12011;47.422;15.018;2024-01-11T01:28:56;-7.80;99.90
23669;DHT22;12011;47.422;15.018;2024-01-11T01:31:28;-7.80;99.90
23669;DHT22;12011;47.422;15.018;2024-01-11T01:34:06;-7.90;99.90
23669;DHT22;12011;47.422;15.018;2024-01-11T01:36:44;-7.90;99.90
23669;DHT22;12011;47.422;15.018;2024-01-11T01:39:15;-7.90;99.90
23669;DHT22;12011;47.422;15.018;2024-01-11T01:41:50;-8.00;99.90
23669;DHT22;12011;47.422;15.018;2024-01-11T01:44:19;-8.00;99.90
23669;DHT22;12011;47.422;15.018;2024-01-11T01:46:56;-8.10;99.90
23669;DHT22;12011;47.422;15.018;2024-01-11T01:49:30;-8.20;99.90
23669;DHT22;12011;47.422;15.018;2024-01-11T01:52:03;-8.10;99.90
23669;DHT22;12011;47.422;15.018;2024-01-11T01:54:35;-7.60;99.90
23669;DHT22;12011;47.422;15.018;2024-01-11T01:57:13;-8.20;99.90
23669;DHT22;12011;47.422;15.018;2024-01-11T01:59:51;-8.20;99.90
23669;DHT22;12011;47.422;15.018;2024-01-11T02:02:23;-8.20;99.90
23669;DHT22;12011;47.422;15.018;2024-01-11T02:05:01;-8.20;99.90
23669;DHT22;12011;47.422;15.018;2024-01-11T02:07:37;-8.20;99.90
23669;DHT22;12011;47.422;15.018;2024-01-11T02:10:11;-8.20;99.90
23669;DHT22;12011;47.422;15.018;2024-01-11T02:12:43;-8.20;99.90
23669;DHT22;12011;47.422;15.018;2024-01-11T02:15:18;-8.20;99.90
23669;DHT22;12011;47.422;15.018;2024-01-11T02:17:50;-8.30;99.90
23669;DHT22;12011;47.422;15.018;2024-01-11T02:20:23;-7.40;99.90
23669;DHT22;12011;47.422;15.018;2024-01-11T02:23:03;-8.30;99.90
23669;DHT22;12011;47.422;15.018;2024-01-11T02:25:44;-8.40;99.90
23669;DHT22;12011;47.422;15.018;2024-01-11T02:28:13;-8.40;99.90
23669;DHT22;12011;47.422;15.018;2024-01-11T02:30:46;-8.40;99.90
23669;DHT22;12011;47.422;15.018;2024-01-11T02:33:19;-8.40;99.90
23669;DHT22;12011;47.422;15.018;2024-01-11T02:36:04;-8.20;99.90
23669;DHT22;12011;47.422;15.018;2024-01-11T02:38:38;-8.30;99.90
23669;DHT22;12011;47.422;15.018;2024-01-11T02:41:13;-8.30;99.90
23669;DHT22;12011;47.422;15.018;2024-01-11T02:43:47;-8.30;99.90
23669;DHT22;12011;47.422;15.018;2024-01-11T02:46:30;-7.70;99.90
23669;DHT22;12011;47.422;15.018;2024-01-11T02:49:03;-8.40;99.90
23669;DHT22;12011;47.422;15.018;2024-01-11T02:51:38;-7.80;99.90
23669;DHT22;12011;47.422;15.018;2024-01-11T02:54:12;-8.40;99.90
23669;DHT22;12011;47.422;15.018;2024-01-11T02:56:44;-8.20;99.90
23669;DHT22;12011;47.422;15.018;2024-01-11T02:59:14;-8.20;99.90
23669;DHT22;12011;47.422;15.018;2024-01-11T03:01:46;-8.10;99.90
23669;DHT22;12011;47.422;15.018;2024-01-11T03:04:21;-8.10;99.90
23669;DHT22;12011;47.422;15.018;2024-01-11T03:06:52;-8.10;99.90
23669;DHT22;12011;47.422;15.018;2024-01-11T03:09:29;-8.10;99.90
23669;DHT22;12011;47.422;15.018;2024-01-11T03:12:05;-8.20;99.90
23669;DHT22;12011;47.422;15.018;2024-01-11T03:14:36;-8.20;99.90
23669;DHT22;12011;47.422;15.018;2024-01-11T03:17:22;-7.70;99.90
23669;DHT22;12011;47.422;15.018;2024-01-11T03:19:52;-8.30;99.90
23669;DHT22;12011;47.422;15.018;2024-01-11T03:22:30;-8.30;99.90
23669;DHT22;12011;47.422;15.018;2024-01-11T03:25:00;-8.30;99.90
23669;DHT22;12011;47.422;15.018;2024-01-11T03:27:36;-8.30;99.90
23669;DHT22;12011;47.422;15.018;2024-01-11T03:30:08;-8.40;99.90
23669;DHT22;12011;47.422;15.018;2024-01-11T03:32:38;-8.50;99.90
23669;DHT22;12011;47.422;15.018;2024-01-11T03:35:15;-8.50;99.90
23669;DHT22;12011;47.422;15.018;2024-01-11T03:37:47;-8.60;99.90
23669;DHT22;12011;47.422;15.018;2024-01-11T03:40:18;-8.60;99.90
23669;DHT22;12011;47.422;15.018;2024-01-11T03:42:59;-8.60;99.90
23669;DHT22;12011;47.422;15.018;2024-01-11T03:45:31;-8.70;99.90
23669;DHT22;12011;47.422;15.018;2024-01-11T03:48:03;-8.70;99.90
23669;DHT22;12011;47.422;15.018;2024-01-11T03:50:38;-8.70;99.90
23669;DHT22;12011;47.422;15.018;2024-01-11T03:53:14;-8.70;99.90
23669;DHT22;12011;47.422;15.018;2024-01-11T03:55:48;-8.60;99.90
23669;DHT22;12011;47.422;15.018;2024-01-11T03:58:25;-8.60;99.90
23669;DHT22;12011;47.422;15.018;2024-01-11T04:00:56;-8.70;99.90
23669;DHT22;12011;47.422;15.018;2024-01-11T04:03:35;-8.70;99.90
23669;DHT22;12011;47.422;15.018;2024-01-11T04:06:07;-8.70;99.90
23669;DHT22;12011;47.422;15.018;2024-01-11T04:08:38;-8.70;99.90
23669;DHT22;12011;47.422;15.018;2024-01-11T04:11:12;-8.80;99.90
23669;DHT22;12011;47.422;15.018;2024-01-11T04:13:51;-8.70;99.90
23669;DHT22;12011;47.422;15.018;2024-01-11T04:16:27;-8.70;99.90
23669;DHT22;12011;47.422;15.018;2024-01-11T04:19:00;-8.60;99.90
23669;DHT22;12011;47.422;15.018;2024-01-11T04:21:36;-8.60;99.90
23669;DHT22;12011;47.422;15.018;2024-01-11T04:24:11;-8.60;99.90
23669;DHT22;12011;47.422;15.018;2024-01-11T04:26:41;-8.70;99.90
23669;DHT22;12011;47.422;15.018;2024-01-11T04:29:16;-8.80;99.90
23669;DHT22;12011;47.422;15.018;2024-01-11T04:31:50;-8.70;99.90
23669;DHT22;12011;47.422;15.018;2024-01-11T04:34:22;-8.80;99.90
23669;DHT22;12011;47.422;15.018;2024-01-11T04:36:53;-8.80;99.90
23669;DHT22;12011;47.422;15.018;2024-01-11T04:39:25;-8.90;99.90
23669;DHT22;12011;47.422;15.018;2024-01-11T04:41:56;-8.90;99.90
23669;DHT22;12011;47.422;15.018;2024-01-11T04:44:33;-7.90;99.90
23669;DHT22;12011;47.422;15.018;2024-01-11T04:47:05;-8.90;99.90
23669;DHT22;12011;47.422;15.018;2024-01-11T04:49:37;-9.10;99.90
23669;DHT22;12011;47.422;15.018;2024-01-11T04:52:12;-8.90;99.90
23669;DHT22;12011;47.422;15.018;2024-01-11T04:54:44;-7.60;99.90
23669;DHT22;12011;47.422;15.018;2024-01-11T04:57:15;-8.90;99.90
23669;DHT22;12011;47.422;15.018;2024-01-11T04:59:51;-8.90;99.90
23669;DHT22;12011;47.422;15.018;2024-01-11T05:02:21;-8.90;99.90
23669;DHT22;12011;47.422;15.018;2024-01-11T05:04:59;-8.10;99.90
23669;DHT22;12011;47.422;15.018;2024-01-11T05:07:36;-8.90;99.90
23669;DHT22;12011;47.422;15.018;2024-01-11T05:10:09;-8.90;99.90
23669;DHT22;12011;47.422;15.018;2024-01-11T05:12:38;-9.10;99.90
23669;DHT22;12011;47.422;15.018;2024-01-11T05:15:11;-8.80;99.90
23669;DHT22;12011;47.422;15.018;2024-01-11T05:17:41;-8.80;99.90
23669;DHT22;12011;47.422;15.018;2024-01-11T05:20:11;-8.80;99.90
23669;DHT22;12011;47.422;15.018;2024-01-11T05:22:43;-8.80;99.90
23669;DHT22;12011;47.422;15.018;2024-01-11T05:25:16;-8.80;99.90
23669;DHT22;12011;47.422;15.018;2024-01-11T05:27:48;-8.80;99.90
23669;DHT22;12011;47.422;15.018;2024-01-11T05:30:28;-8.90;99.90
23669;DHT22;12011;47.422;15.018;2024-01-11T05:32:58;-8.90;99.90
23669;DHT22;12011;47.422;15.018;2024-01-11T05:35:28;-8.90;99.90
23669;DHT22;12011;47.422;15.018;2024-01-11T05:37:58;-9.00;99.90
23669;DHT22;12011;47.422;15.018;2024-01-11T05:40:30;-9.10;99.90
23669;DHT22;12011;47.422;15.018;2024-01-11T05:42:59;-9.10;99.90
23669;DHT22;12011;47.422;15.018;2024-01-11T05:45:34;-9.10;99.90
23669;DHT22;12011;47.422;15.018;2024-01-11T05:48:12;-9.10;99.90
23669;DHT22;12011;47.422;15.018;2024-01-11T05:50:53;-9.10;99.90
23669;DHT22;12011;47.422;15.018;2024-01-11T05:53:26;-9.00;99.90
23669;DHT22;12011;47.422;15.018;2024-01-11T05:55:59;-9.10;99.90
23669;DHT22;12011;47.422;15.018;2024-01-11T05:58:31;-9.10;99.90
23669;DHT22;12011;47.422;15.018;2024-01-11T06:01:10;-9.10;99.90
23669;DHT22;12011;47.422;15.018;2024-01-11T06:03:43;-9.10;99.90
23669;DHT22;12011;47.422;15.018;2024-01-11T06:06:15;-9.00;99.90
23669;DHT22;12011;47.422;15.018;2024-01-11T06:08:46;-9.00;99.90
23669;DHT22;12011;47.422;15.018;2024-01-11T06:11:20;-8.80;99.90
23669;DHT22;12011;47.422;15.018;2024-01-11T06:13:50;-8.80;99.90
23669;DHT22;12011;47.422;15.018;2024-01-11T06:16:23;-8.80;99.90
23669;DHT22;12011;47.422;15.018;2024-01-11T06:18:58;-8.90;99.90
23669;DHT22;12011;47.422;15.018;2024-01-11T06:21:30;-7.40;99.90
23669;DHT22;12011;47.422;15.018;2024-01-11T06:24:02;-8.90;99.90
23669;DHT22;12011;47.422;15.018;2024-01-11T06:26:34;-8.90;99.90
23669;DHT22;12011;47.422;15.018;2024-01-11T06:29:11;-8.90;99.90
23669;DHT22;12011;47.422;15.018;2024-01-11T06:31:50;-9.00;99.90
23669;DHT22;12011;47.422;15.018;2024-01-11T06:34:23;-9.00;99.90
23669;DHT22;12011;47.422;15.018;2024-01-11T06:36:58;-9.00;99.90
23669;DHT22;12011;47.422;15.018;2024-01-11T06:39:37;-8.90;99.90
23669;DHT22;12011;47.422;15.018;2024-01-11T06:42:08;-8.90;99.90
23669;DHT22;12011;47.422;15.018;2024-01-11T06:44:37;-8.90;99.90
23669;DHT22;12011;47.422;15.018;2024-01-11T06:47:10;-8.90;99.90
23669;DHT22;12011;47.422;15.018;2024-01-11T06:49:39;-8.80;99.90
23669;DHT22;12011;47.422;15.018;2024-01-11T06:52:09;-8.80;99.90
23669;DHT22;12011;47.422;15.018;2024-01-11T06:54:39;-8.70;99.90
23669;DHT22;12011;47.422;15.018;2024-01-11T06:57:09;-8.60;99.90
23669;DHT22;12011;47.422;15.018;2024-01-11T06:59:38;-8.50;99.90
23669;DHT22;12011;47.422;15.018;2024-01-11T07:02:10;-8.40;99.90
23669;DHT22;12011;47.422;15.018;2024-01-11T07:04:43;-8.30;99.90
23669;DHT22;12011;47.422;15.018;2024-01-11T07:07:14;-8.20;99.90
23669;DHT22;12011;47.422;15.018;2024-01-11T07:09:44;-8.20;99.90
23669;DHT22;12011;47.422;15.018;2024-01-11T07:12:13;-8.10;99.90
23669;DHT22;12011;47.422;15.018;2024-01-11T07:14:43;-7.50;99.90
23669;DHT22;12011;47.422;15.018;2024-01-11T07:17:15;-7.90;99.90
23669;DHT22;12011;47.422;15.018;2024-01-11T07:19:44;-7.90;99.90
23669;DHT22;12011;47.422;15.018;2024-01-11T07:22:14;-7.80;99.90
23669;DHT22;12011;47.422;15.018;2024-01-11T07:24:43;-7.70;99.90
23669;DHT22;12011;47.422;15.018;2024-01-11T07:27:13;-7.60;99.90
23669;DHT22;12011;47.422;15.018;2024-01-11T07:29:43;-7.40;99.90
23669;DHT22;12011;47.422;15.018;2024-01-11T07:32:15;-7.30;99.90
23669;DHT22;12011;47.422;15.018;2024-01-11T07:34:44;-7.10;99.90
23669;DHT22;12011;47.422;15.018;2024-01-11T07:37:14;-6.90;99.90
23669;DHT22;12011;47.422;15.018;2024-01-11T07:39:43;-6.70;99.90
23669;DHT22;12011;47.422;15.018;2024-01-11T07:42:14;-6.50;99.90
23669;DHT22;12011;47.422;15.018;2024-01-11T07:44:45;-6.40;99.90
23669;DHT22;12011;47.422;15.018;2024-01-11T07:47:17;-6.30;99.90
23669;DHT22;12011;47.422;15.018;2024-01-11T07:49:46;-5.20;99.90
23669;DHT22;12011;47.422;15.018;2024-01-11T07:52:16;-3.00;99.90
23669;DHT22;12011;47.422;15.018;2024-01-11T07:54:45;-0.80;99.90
23669;DHT22;12011;47.422;15.018;2024-01-11T07:57:15;-0.90;99.90
23669;DHT22;12011;47.422;15.018;2024-01-11T07:59:44;0.00;98.60
23669;DHT22;12011;47.422;15.018;2024-01-11T08:02:17;0.70;99.90
23669;DHT22;12011;47.422;15.018;2024-01-11T08:04:46;0.60;85.20
23669;DHT22;12011;47.422;15.018;2024-01-11T08:07:16;1.30;95.90
23669;DHT22;12011;47.422;15.018;2024-01-11T08:09:45;1.90;92.60
23669;DHT22;12011;47.422;15.018;2024-01-11T08:12:16;2.70;93.30
23669;DHT22;12011;47.422;15.018;2024-01-11T08:14:45;3.00;87.30
23669;DHT22;12011;47.422;15.018;2024-01-11T08:17:19;3.50;82.50
23669;DHT22;12011;47.422;15.018;2024-01-11T08:19:49;4.10;70.30
23669;DHT22;12011;47.422;15.018;2024-01-11T08:22:18;4.60;59.60
23669;DHT22;12011;47.422;15.018;2024-01-11T08:24:48;5.10;57.50
23669;DHT22;12011;47.422;15.018;2024-01-11T08:27:17;5.50;53.70
23669;DHT22;12011;47.422;15.018;2024-01-11T08:29:48;5.90;51.50
23669;DHT22;12011;47.422;15.018;2024-01-11T08:32:20;6.10;50.10
23669;DHT22;12011;47.422;15.018;2024-01-11T08:34:49;6.40;47.70
23669;DHT22;12011;47.422;15.018;2024-01-11T08:37:19;6.70;48.60
23669;DHT22;12011;47.422;15.018;2024-01-11T08:39:49;6.00;47.50
23669;DHT22;12011;47.422;15.018;2024-01-11T08:42:19;5.90;47.30
23669;DHT22;12011;47.422;15.018;2024-01-11T08:44:48;6.30;47.30
23669;DHT22;12011;47.422;15.018;2024-01-11T08:47:21;6.50;47.00
23669;DHT22;12011;47.422;15.018;2024-01-11T08:49:50;6.50;45.40
23669;DHT22;12011;47.422;15.018;2024-01-11T08:52:22;7.00;45.40
23669;DHT22;12011;47.422;15.018;2024-01-11T08:54:51;6.80;45.10
23669;DHT22;12011;47.422;15.018;2024-01-11T08:57:21;6.70;44.20
23669;DHT22;12011;47.422;15.018;2024-01-11T08:59:50;7.20;44.40
23669;DHT22;12011;47.422;15.018;2024-01-11T09:02:23;7.10;43.90
23669;DHT22;12011;47.422;15.018;2024-01-11T09:04:52;7.00;44.60
23669;DHT22;12011;47.422;15.018;2024-01-11T09:07:22;7.10;45.00
23669;DHT22;12011;47.422;15.018;2024-01-11T09:09:51;7.50;45.00
23669;DHT22;12011;47.422;15.018;2024-01-11T09:12:21;7.40;44.60
23669;DHT22;12011;47.422;15.018;2024-01-11T09:14:51;7.10;43.80
23669;DHT22;12011;47.422;15.018;2024-01-11T09:17:23;6.90;44.10
23669;DHT22;12011;47.422;15.018;2024-01-11T09:19:52;5.90;45.10
23669;DHT22;12011;47.422;15.018;2024-01-11T09:22:22;4.60;48.50
23669;DHT22;12011;47.422;15.018;2024-01-11T09:24:52;3.20;52.30
23669;DHT22;12011;47.422;15.018;2024-01-11T09:27:21;2.20;62.70
23669;DHT22;12011;47.422;15.018;2024-01-11T09:29:51;1.60;74.60
23669;DHT22;12011;47.422;15.018;2024-01-11T09:32:23;0.70;81.30
23669;DHT22;12011;47.422;15.018;2024-01-11T09:34:52;-0.50;93.80
23669;DHT22;12011;47.422;15.018;2024-01-11T09:37:22;-0.80;97.70
23669;DHT22;12011;47.422;15.018;2024-01-11T09:39:52;-1.60;99.90
23669;DHT22;12011;47.422;15.018;2024-01-11T09:42:21;-1.60;99.90
23669;DHT22;12011;47.422;15.018;2024-01-11T09:44:51;-1.70;99.90
23669;DHT22;12011;47.422;15.018;2024-01-11T09:47:25;-1.80;99.90
23669;DHT22;12011;47.422;15.018;2024-01-11T09:49:55;-2.00;99.90
23669;DHT22;12011;47.422;15.018;2024-01-11T09:52:26;-1.70;99.90
23669;DHT22;12011;47.422;15.018;2024-01-11T09:54:57;-2.20;99.90
23669;DHT22;12011;47.422;15.018;2024-01-11T09:57:32;-1.40;99.90
23669;DHT22;12011;47.422;15.018;2024-01-11T10:00:05;-2.40;99.90
23669;DHT22;12011;47.422;15.018;2024-01-11T10:02:39;-2.30;99.90
23669;DHT22;12011;47.422;15.018;2024-01-11T10:05:09;-1.60;99.90
23669;DHT22;12011;47.422;15.018;2024-01-11T10:07:40;-1.60;99.90
23669;DHT22;12011;47.422;15.018;2024-01-11T10:10:10;-1.70;99.90
23669;DHT22;12011;47.422;15.018;2024-01-11T10:12:41;-1.50;99.90
23669;DHT22;12011;47.422;15.018;2024-01-11T10:15:11;-1.10;99.90
23669;DHT22;12011;47.422;15.018;2024-01-11T11:27:16;-1.10;99.90
23669;DHT22;12011;47.422;15.018;2024-01-11T11:29:47;-0.70;99.90
23669;DHT22;12011;47.422;15.018;2024-01-11T11:32:18;-0.30;99.90
23669;DHT22;12011;47.422;15.018;2024-01-11T11:35:05;0.00;99.90
23669;DHT22;12011;47.422;15.018;2024-01-11T11:37:37;0.90;99.90
23669;DHT22;12011;47.422;15.018;2024-01-11T11:40:09;1.60;91.00
23669;DHT22;12011;47.422;15.018;2024-01-11T11:42:42;2.80;84.70
23669;DHT22;12011;47.422;15.018;2024-01-11T11:45:11;3.90;73.60
23669;DHT22;12011;47.422;15.018;2024-01-11T11:47:53;4.50;63.90
23669;DHT22;12011;47.422;15.018;2024-01-11T11:50:23;5.20;60.10
23669;DHT22;12011;47.422;15.018;2024-01-11T11:52:55;5.70;57.50
23669;DHT22;12011;47.422;15.018;2024-01-11T11:55:25;6.00;53.80
23669;DHT22;12011;47.422;15.018;2024-01-11T11:57:57;6.50;53.30
23669;DHT22;12011;47.422;15.018;2024-01-11T12:00:27;6.70;50.80
23669;DHT22;12011;47.422;15.018;2024-01-11T12:03:02;6.80;50.00
23669;DHT22;12011;47.422;15.018;2024-01-11T12:05:33;6.70;48.30
23669;DHT22;12011;47.422;15.018;2024-01-11T12:08:03;7.30;48.60
23669;DHT22;12011;47.422;15.018;2024-01-11T12:10:33;7.50;49.00
23669;DHT22;12011;47.422;15.018;2024-01-11T12:13:06;7.90;46.80
23669;DHT22;12011;47.422;15.018;2024-01-11T12:15:35;7.70;46.80
23669;DHT22;12011;47.422;15.018;2024-01-11T12:18:05;8.00;46.60
23669;DHT22;12011;47.422;15.018;2024-01-11T12:20:35;8.50;45.70
23669;DHT22;12011;47.422;15.018;2024-01-11T12:23:04;8.50;45.40
23669;DHT22;12011;47.422;15.018;2024-01-11T12:25:35;8.50;45.70
23669;DHT22;12011;47.422;15.018;2024-01-11T12:28:07;8.40;46.50
23669;DHT22;12011;47.422;15.018;2024-01-11T12:30:36;8.40;45.40
23669;DHT22;12011;47.422;15.018;2024-01-11T13:48:00;2.00;93.00
23669;DHT22;12011;47.422;15.018;2024-01-11T13:50:29;1.70;93.10
23669;DHT22;12011;47.422;15.018;2024-01-11T13:52:59;1.60;93.40
23669;DHT22;12011;47.422;15.018;2024-01-11T13:55:30;1.50;94.70
23669;DHT22;12011;47.422;15.018;2024-01-11T13:58:04;1.30;96.40
23669;DHT22;12011;47.422;15.018;2024-01-11T14:00:33;1.10;97.30
23669;DHT22;12011;47.422;15.018;2024-01-11T14:03:06;1.10;97.00
23669;DHT22;12011;47.422;15.018;2024-01-11T14:05:37;1.00;95.80
23669;DHT22;12011;47.422;15.018;2024-01-11T14:08:07;0.90;96.00
23669;DHT22;12011;47.422;15.018;2024-01-11T14:10:37;0.80;94.90
23669;DHT22;12011;47.422;15.018;2024-01-11T14:13:07;0.80;92.20
23669;DHT22;12011;47.422;15.018;2024-01-11T14:15:36;0.80;91.40
23669;DHT22;12011;47.422;15.018;2024-01-11T14:18:09;0.90;90.70
23669;DHT22;12011;47.422;15.018;2024-01-11T14:20:38;1.00;90.40
23669;DHT22;12011;47.422;15.018;2024-01-11T14:23:08;1.00;91.20
23669;DHT22;12011;47.422;15.018;2024-01-11T14:25:38;0.90;92.20
23669;DHT22;12011;47.422;15.018;2024-01-11T14:28:07;0.90;91.30
23669;DHT22;12011;47.422;15.018;2024-01-11T14:30:37;0.80;93.30
23669;DHT22;12011;47.422;15.018;2024-01-11T14:33:09;0.70;93.40
23669;DHT22;12011;47.422;15.018;2024-01-11T14:35:38;0.80;92.80
23669;DHT22;12011;47.422;15.018;2024-01-11T14:38:09;0.80;93.70
23669;DHT22;12011;47.422;15.018;2024-01-11T14:40:38;0.80;93.10
23669;DHT22;12011;47.422;15.018;2024-01-11T14:43:08;0.80;94.30
23669;DHT22;12011;47.422;15.018;2024-01-11T14:45:37;0.90;94.10
23669;DHT22;12011;47.422;15.018;2024-01-11T14:48:09;0.90;93.40
23669;DHT22;12011;47.422;15.018;2024-01-11T14:50:39;0.70;92.80
23669;DHT22;12011;47.422;15.018;2024-01-11T14:53:08;0.60;92.60
23669;DHT22;12011;47.422;15.018;2024-01-11T14:55:38;0.40;93.10
23669;DHT22;12011;47.422;15.018;2024-01-11T14:58:08;0.40;93.80
23669;DHT22;12011;47.422;15.018;2024-01-11T15:00:38;0.30;94.10
23669;DHT22;12011;47.422;15.018;2024-01-11T15:03:10;0.20;96.80
23669;DHT22;12011;47.422;15.018;2024-01-11T15:05:39;0.20;96.10
23669;DHT22;12011;47.422;15.018;2024-01-11T15:08:09;0.10;96.20
23669;DHT22;12011;47.422;15.018;2024-01-11T15:10:38;0.20;95.30
23669;DHT22;12011;47.422;15.018;2024-01-11T15:13:08;0.00;96.10
23669;DHT22;12011;47.422;15.018;2024-01-11T15:15:38;-0.30;95.40
23669;DHT22;12011;47.422;15.018;2024-01-11T15:18:10;-0.60;96.70
23669;DHT22;12011;47.422;15.018;2024-01-11T15:20:39;-1.00;97.40
23669;DHT22;12011;47.422;15.018;2024-01-11T15:23:09;-1.00;97.40
23669;DHT22;12011;47.422;15.018;2024-01-11T15:25:38;-1.10;99.90
23669;DHT22;12011;47.422;15.018;2024-01-11T15:28:08;-1.40;99.90
23669;DHT22;12011;47.422;15.018;2024-01-11T15:30:37;-1.30;99.90
23669;DHT22;12011;47.422;15.018;2024-01-11T15:33:10;-1.10;99.90
23669;DHT22;12011;47.422;15.018;2024-01-11T15:35:40;-1.20;99.90
23669;DHT22;12011;47.422;15.018;2024-01-11T15:38:10;-1.70;98.40
23669;DHT22;12011;47.422;15.018;2024-01-11T15:40:39;-1.50;99.90
23669;DHT22;12011;47.422;15.018;2024-01-11T15:43:15;-1.50;99.90
23669;DHT22;12011;47.422;15.018;2024-01-11T15:45:47;-1.60;99.90
23669;DHT22;12011;47.422;15.018;2024-01-11T15:48:20;-1.70;99.90
23669;DHT22;12011;47.422;15.018;2024-01-11T15:50:51;-1.80;99.90
23669;DHT22;12011;47.422;15.018;2024-01-11T15:53:21;-1.90;99.90
23669;DHT22;12011;47.422;15.018;2024-01-11T15:55:51;-2.00;99.90
23669;DHT22;12011;47.422;15.018;2024-01-11T15:58:20;-1.40;99.90
23669;DHT22;12011;47.422;15.018;2024-01-11T16:00:50;-2.20;99.90
23669;DHT22;12011;47.422;15.018;2024-01-11T16:03:24;-2.30;99.90
23669;DHT22;12011;47.422;15.018;2024-01-11T16:05:53;-1.60;99.90
23669;DHT22;12011;47.422;15.018;2024-01-11T16:08:22;-2.50;99.90
23669;DHT22;12011;47.422;15.018;2024-01-11T16:10:52;-2.10;99.90
23669;DHT22;12011;47.422;15.018;2024-01-11T16:13:21;-2.00;99.90
23669;DHT22;12011;47.422;15.018;2024-01-11T16:15:51;-2.70;99.90
23669;DHT22;12011;47.422;15.018;2024-01-11T16:18:25;-2.60;99.90
23669;DHT22;12011;47.422;15.018;2024-01-11T16:20:54;-2.80;99.90
23669;DHT22;12011;47.422;15.018;2024-01-11T16:23:24;-2.40;99.90
23669;DHT22;12011;47.422;15.018;2024-01-11T16:25:53;-2.70;99.90
23669;DHT22;12011;47.422;15.018;2024-01-11T16:28:23;-2.30;99.90
23669;DHT22;12011;47.422;15.018;2024-01-11T16:30:52;-2.50;99.90
23669;DHT22;12011;47.422;15.018;2024-01-11T16:33:25;-2.30;99.90
23669;DHT22;12011;47.422;15.018;2024-01-11T16:35:55;-2.30;99.90
23669;DHT22;12011;47.422;15.018;2024-01-11T16:38:25;-2.70;99.90
23669;DHT22;12011;47.422;15.018;2024-01-11T16:40:54;-2.50;99.90
23669;DHT22;12011;47.422;15.018;2024-01-11T16:43:24;-2.50;99.90
23669;DHT22;12011;47.422;15.018;2024-01-11T16:45:57;-2.60;99.90
23669;DHT22;12011;47.422;15.018;2024-01-11T16:48:29;-2.70;99.90
23669;DHT22;12011;47.422;15.018;2024-01-11T16:50:59;-3.00;99.90
23669;DHT22;12011;47.422;15.018;2024-01-11T16:53:28;-2.60;99.90
23669;DHT22;12011;47.422;15.018;2024-01-11T16:55:58;-3.30;99.90
23669;DHT22;12011;47.422;15.018;2024-01-11T16:58:27;-3.40;99.90
23669;DHT22;12011;47.422;15.018;2024-01-11T17:00:57;-2.30;99.90
23669;DHT22;12011;47.422;15.018;2024-01-11T17:03:29;-2.30;99.90
23669;DHT22;12011;47.422;15.018;2024-01-11T17:05:58;-2.60;99.90
23669;DHT22;12011;47.422;15.018;2024-01-11T17:08:28;-3.20;99.90
23669;DHT22;12011;47.422;15.018;2024-01-11T17:10:58;-2.70;99.90
23669;DHT22;12011;47.422;15.018;2024-01-11T17:13:27;-2.60;99.90
23669;DHT22;12011;47.422;15.018;2024-01-11T17:15:57;-3.80;99.90
23669;DHT22;12011;47.422;15.018;2024-01-11T17:18:29;-2.60;99.90
23669;DHT22;12011;47.422;15.018;2024-01-11T17:20:58;-3.70;99.90
23669;DHT22;12011;47.422;15.018;2024-01-11T17:23:28;-3.70;99.90
23669;DHT22;12011;47.422;15.018;2024-01-11T17:25:57;-3.60;99.90
23669;DHT22;12011;47.422;15.018;2024-01-11T17:28:30;-3.50;99.90
23669;DHT22;12011;47.422;15.018;2024-01-11T17:30:59;-3.60;99.90
23669;DHT22;12011;47.422;15.018;2024-01-11T17:33:32;-3.60;99.90
23669;DHT22;12011;47.422;15.018;2024-01-11T17:36:01;-3.90;99.90
23669;DHT22;12011;47.422;15.018;2024-01-11T17:38:32;-3.90;99.90
23669;DHT22;12011;47.422;15.018;2024-01-11T17:41:01;-3.50;99.90
23669;DHT22;12011;47.422;15.018;2024-01-11T17:43:31;-4.00;99.90
23669;DHT22;12011;47.422;15.018;2024-01-11T17:46:01;-2.90;99.90
23669;DHT22;12011;47.422;15.018;2024-01-11T17:48:34;-4.00;99.90
23669;DHT22;12011;47.422;15.018;2024-01-11T17:51:04;-3.20;99.90
23669;DHT22;12011;47.422;15.018;2024-01-11T17:53:33;-4.30;99.90
23669;DHT22;12011;47.422;15.018;2024-01-11T17:56:03;-4.20;99.90
23669;DHT22;12011;47.422;15.018;2024-01-11T17:58:33;-4.20;99.90
23669;DHT22;12011;47.422;15.018;2024-01-11T18:01:03;-4.20;99.90
23669;DHT22;12011;47.422;15.018;2024-01-11T18:03:35;-4.20;99.90
23669;DHT22;12011;47.422;15.018;2024-01-11T18:06:04;-4.10;99.90
23669;DHT22;12011;47.422;15.018;2024-01-11T18:08:38;-4.50;99.90
23669;DHT22;12011;47.422;15.018;2024-01-11T18:11:10;-4.40;99.90
23669;DHT22;12011;47.422;15.018;2024-01-11T18:13:40;-4.30;99.90